»·PEaware :: N113A KSEE-KMHV

N113A :: KSEE-KMHV

FLIGHT INFORMATION

Flight Status: Arrived
Operator: Privately registered:
United States
More flights under this callsign
Pilot: Andrew A. (11207)
Aircraft: Unknown
(G58)
More flights by this aircraft type
Origin: KSEE Gillespie
United States
Destination: KMHV Mojave
United States
More flights between these airports :: More routes between these airports
Route: +MZB BONDO ROBNN V186 PDZ V197 PMD MOLTT
File this flight plan on PilotEdge
Remarks:
Altitude:
(Current/Filed)
11,000ft
Speed:
(Current/Filed)
158kts
Departed: 05-Jul-16 06:45 PM
Arrived: 05-Jul-16 08:07 PM
Distance/Time
Traveled:
147nm/1:22
Distance/Time
To Go:
Arrived

Flight Plot

Page will automatically refresh every two minutes.

Flight plan parsing failed; only flown route is shown


Map Options




Map Legend


Flown Route
Filed Route
Departure Airport
Arrival Airport
Navaid (VOR, NDB)
Fix

Horizontal Profiles

Position Reports

Time Latitude Longitude Heading Altitude Ground
Speed
05-Jul-16 18:19 32.823524 -116.970914 83 373ft 0kts
05-Jul-16 18:20 32.823524 -116.970914 83 373ft 0kts
05-Jul-16 18:21 32.823524 -116.970914 83 373ft 0kts
05-Jul-16 18:22 32.823524 -116.970914 83 373ft 0kts
05-Jul-16 18:23 32.823524 -116.970914 83 373ft 0kts
05-Jul-16 18:24 32.823524 -116.970914 83 373ft 0kts
05-Jul-16 18:25 32.823524 -116.970914 83 373ft 0kts
05-Jul-16 18:26 32.823524 -116.970914 83 373ft 0kts
05-Jul-16 18:27 32.823524 -116.970914 83 373ft 0kts
05-Jul-16 18:28 32.823524 -116.970914 83 373ft 0kts
05-Jul-16 18:29 32.823524 -116.970914 83 373ft 0kts
05-Jul-16 18:30 32.823524 -116.970914 83 373ft 0kts
05-Jul-16 18:31 32.823524 -116.970914 83 373ft 0kts
05-Jul-16 18:32 32.823524 -116.970914 83 373ft 0kts
05-Jul-16 18:33 32.823524 -116.970914 83 373ft 0kts
05-Jul-16 18:34 32.823524 -116.970914 83 373ft 0kts
05-Jul-16 18:35 32.823666 -116.971559 311 372ft 13kts
05-Jul-16 18:36 32.825611 -116.969630 101 374ft 13kts
05-Jul-16 18:37 32.824798 -116.965288 100 384ft 6kts
05-Jul-16 18:38 32.824755 -116.964891 86 385ft 0kts
05-Jul-16 18:39 32.825561 -116.964363 1 388ft 1kts
05-Jul-16 18:40 32.825699 -116.964365 359 389ft 0kts
05-Jul-16 18:41 32.828196 -116.973952 283 376ft 110kts
05-Jul-16 18:42 32.837009 -117.006850 281 1324ft 130kts
05-Jul-16 18:43 32.837180 -117.016216 257 1717ft 123kts
05-Jul-16 18:44 32.814491 -117.030034 173 3440ft 98kts
05-Jul-16 18:45 32.784690 -117.028828 199 4509ft 116kts
05-Jul-16 18:46 32.778105 -117.064672 269 5633ft 113kts
05-Jul-16 18:47 32.778863 -117.096709 271 6829ft 102kts
05-Jul-16 18:48 32.780381 -117.128677 295 7999ft 88kts
05-Jul-16 18:49 32.805487 -117.140724 356 8793ft 106kts
05-Jul-16 18:50 32.835471 -117.136898 1 9687ft 106kts
05-Jul-16 18:51 32.869327 -117.132470 7 10030ft 143kts
05-Jul-16 18:52 32.912738 -117.127924 354 10105ft 169kts
05-Jul-16 18:53 32.961976 -117.130349 4 10008ft 180kts
05-Jul-16 18:54 33.012091 -117.126158 4 9931ft 186kts
05-Jul-16 18:55 33.062353 -117.119056 2 10025ft 179kts
05-Jul-16 18:56 33.111187 -117.111128 10 10055ft 180kts
05-Jul-16 18:57 33.161152 -117.105835 357 10072ft 179kts
05-Jul-16 18:58 33.211789 -117.106067 350 9976ft 181kts
05-Jul-16 18:59 33.261616 -117.111308 348 9995ft 181kts
05-Jul-16 19:00 33.312137 -117.113563 357 10017ft 180kts
05-Jul-16 19:01 33.361798 -117.122374 344 10000ft 181kts
05-Jul-16 19:02 33.412073 -117.129349 352 10028ft 178kts
05-Jul-16 19:03 33.461969 -117.135312 357 10121ft 174kts
05-Jul-16 19:04 33.496743 -117.173443 310 10024ft 178kts
05-Jul-16 19:05 33.532005 -117.214057 323 10107ft 175kts
05-Jul-16 19:06 33.567776 -117.253437 339 10085ft 177kts
05-Jul-16 19:07 33.612459 -117.279562 324 10026ft 179kts
05-Jul-16 19:08 33.654555 -117.312646 326 9922ft 186kts
05-Jul-16 19:09 33.697452 -117.344179 326 9974ft 182kts
05-Jul-16 19:10 33.738828 -117.378984 323 9984ft 179kts
05-Jul-16 19:11 33.778062 -117.413412 324 10020ft 178kts
05-Jul-16 19:12 33.818901 -117.449225 325 9875ft 185kts
05-Jul-16 19:13 33.858759 -117.484065 332 9938ft 180kts
05-Jul-16 19:14 33.899807 -117.516607 325 10031ft 176kts
05-Jul-16 19:15 33.934226 -117.558206 298 9934ft 180kts
05-Jul-16 19:16 33.960405 -117.608345 310 9971ft 177kts
05-Jul-16 19:17 33.990628 -117.654592 306 9921ft 180kts
05-Jul-16 19:18 34.020833 -117.700323 306 10057ft 172kts
05-Jul-16 19:19 34.051969 -117.746170 309 9984ft 177kts
05-Jul-16 19:20 34.079866 -117.794484 300 9977ft 178kts
05-Jul-16 19:21 34.121558 -117.820893 338 10014ft 174kts
05-Jul-16 19:22 34.167174 -117.839159 348 10434ft 152kts
05-Jul-16 19:23 34.204941 -117.851089 335 11412ft 125kts
05-Jul-16 19:24 34.237065 -117.865545 337 11931ft 140kts
05-Jul-16 19:25 34.275643 -117.884304 337 11960ft 168kts
05-Jul-16 19:26 34.319134 -117.904823 332 12009ft 170kts
05-Jul-16 19:27 34.363487 -117.926878 333 12050ft 170kts
05-Jul-16 19:28 34.406740 -117.950554 332 12096ft 171kts
05-Jul-16 19:29 34.450323 -117.977311 331 11966ft 176kts
05-Jul-16 19:30 34.495523 -117.998409 341 12054ft 171kts
05-Jul-16 19:31 34.533848 -118.015287 333 11975ft 173kts
05-Jul-16 19:32 34.578413 -118.036893 337 12016ft 172kts
05-Jul-16 19:33 34.623143 -118.060450 328 11965ft 173kts
05-Jul-16 19:34 34.648234 -118.076841 330 11864ft 180kts
05-Jul-16 19:35 34.664635 -118.086539 336 11481ft 178kts
05-Jul-16 19:36 34.668164 -118.088178 338 11293ft 182kts
05-Jul-16 19:37 34.713985 -118.103295 345 8109ft 221kts
05-Jul-16 19:38 34.754468 -118.109598 4 9800ft 144kts
05-Jul-16 19:39 34.797542 -118.100834 9 9933ft 171kts
05-Jul-16 19:40 34.844768 -118.090055 8 10018ft 177kts
05-Jul-16 19:41 34.891978 -118.077400 13 9998ft 181kts
05-Jul-16 19:42 34.940279 -118.062443 15 10001ft 182kts
05-Jul-16 19:43 34.988533 -118.046484 6 9986ft 183kts
05-Jul-16 19:44 35.038153 -118.034276 13 10021ft 179kts
05-Jul-16 19:45 35.085331 -118.016530 12 10027ft 181kts
05-Jul-16 19:46 35.134063 -118.000207 14 9969ft 183kts
05-Jul-16 19:47 35.183136 -117.988060 8 10019ft 181kts
05-Jul-16 19:48 35.230743 -117.978376 10 9785ft 134kts
05-Jul-16 19:49 35.260339 -117.963928 26 10034ft 122kts
05-Jul-16 19:50 35.295552 -117.953207 0 9861ft 125kts
05-Jul-16 19:51 35.314531 -117.932196 112 10037ft 113kts
05-Jul-16 19:52 35.291053 -117.932468 233 9988ft 100kts
05-Jul-16 19:53 35.272484 -117.953057 216 9461ft 119kts
05-Jul-16 19:54 35.250068 -117.969464 209 7563ft 130kts
05-Jul-16 19:55 35.238234 -117.982780 221 6537ft 124kts
05-Jul-16 19:56 35.211180 -118.003759 212 4722ft 118kts
05-Jul-16 19:57 35.185750 -118.018056 201 4776ft 138kts
05-Jul-16 19:58 35.145653 -118.043559 209 4810ft 162kts
05-Jul-16 19:59 35.118853 -118.073485 225 3596ft 117kts
05-Jul-16 20:00 35.099548 -118.100593 242 3874ft 107kts
05-Jul-16 20:01 35.081354 -118.130630 231 3527ft 104kts
05-Jul-16 20:02 35.065128 -118.155926 232 2782ft 83kts
05-Jul-16 20:03 35.059663 -118.164400 229 2778ft 0kts
05-Jul-16 20:04 35.059658 -118.164407 229 2779ft 0kts
05-Jul-16 20:05 35.058526 -118.165153 147 2780ft 13kts

Navigation Log

Ident Type
Flight plan parsing failed, navigation log unavailable